Terminal Aerodrome Forecast
Issued by NWS Wilmington, OH

Current Version | Previous Version | Text Only | Print | Product List | Glossary Off
Versions: 1 2 3 4 5 6 7 8 9 10 11 12 13 14 15 16 17 18 19 20 21 22 23

000
FTUS41 KILN 250300 AAB
TAFDAY
TAF AMD
KDAY 250300Z 2503/2524 26022G28KT P6SM VCSH BKN015 BKN021 OVC030
      TEMPO 2503/2507 -SHRA SCT015 OVC025
     FM251200 24012G21KT P6SM BKN020=

USA.gov is the U.S. government's official web portal to all federal, state and local government web resources and services.